Thursday, June 21, 2018, 12:03 PM EDT
Back to Local

KMGJ, Montgomery Orange Co Airport

Location: Montgomery, NY, United States Lat: 41.517
Local Time: 12:03 PM EDT (16:03 GMT) Lon: -74.267
Time Zone: US/Eastern Elev: 354 ft

Show me the last for .
Show Decoded

2018-06-21 10:54 METAR KMGJ 211454Z AUTO 02009KT 10SM FEW120 25/14 A2980 RMK AO2 SLP090 T02500139
                 51003 =
2018-06-21 09:54 METAR KMGJ 211354Z AUTO 03005KT 10SM SCT120 23/16 A2980 RMK AO2 SLP090 T02280156
                 =
2018-06-21 08:54 METAR KMGJ 211254Z AUTO 00000KT 10SM FEW011 21/18 A2980 RMK AO2 SLP089 T02110178
                 =
2018-06-21 07:54 METAR KMGJ 211154Z AUTO 00000KT 10SM SCT005 BKN100 19/18 A2979 RMK AO2 SLP087
                 60004 70006 T01940178 10194 20178 53005 =
2018-06-21 07:49 METAR KMGJ 211149Z AUTO 00000KT 10SM BKN005 19/18 A2979 RMK AO2 =
2018-06-21 06:54 METAR KMGJ 211054Z AUTO 00000KT 10SM FEW005 OVC100 19/18 A2978 RMK AO2 RAE0957
                 SLP082 P0000 T01890178 =
2018-06-21 06:50 METAR KMGJ 211050Z AUTO 00000KT 10SM SCT004 OVC100 19/18 A2978 RMK AO2 RAE0957
                 P0000 =
2018-06-21 06:25 METAR KMGJ 211025Z AUTO 00000KT 9SM BKN004 OVC110 18/17 A2977 RMK AO2 RAE0957
                 P0000 T01830172 =
2018-06-21 06:14 METAR KMGJ 211014Z AUTO 00000KT 10SM SCT003 BKN110 18/17 A2977 RMK AO2 RAE0957
                 P0000 T01830172 =
2018-06-21 05:54 METAR KMGJ 210954Z AUTO 00000KT 9SM -RA SCT037 SCT070 SCT100 18/17 A2977 RMK AO2
                 RAB06E17B24 SLP078 P0000 T01780172 =
2018-06-21 04:54 METAR KMGJ 210854Z AUTO 00000KT 10SM OVC080 18/17 A2976 RMK AO2 RAB06E17 SLP076
                 P0000 60004 T01780172 55008 =
2018-06-21 03:54 METAR KMGJ 210754Z AUTO 00000KT 10SM BKN060 OVC075 18/17 A2976 RMK AO2
                 RAE13B29E41 SLP075 P0000 T01780167 =
2018-06-21 03:30 METAR KMGJ 210730Z AUTO 00000KT 10SM -RA FEW003 BKN060 OVC070 18/17 A2977 RMK
                 AO2 RAE13B29 P0000 T01780172 =
2018-06-21 02:54 METAR KMGJ 210654Z AUTO 00000KT 9SM -RA FEW060 BKN090 OVC110 18/17 A2977 RMK AO2
                 RAB22 SLP078 P0004 T01780167 =
2018-06-21 01:54 METAR KMGJ 210554Z AUTO 21004KT 10SM OVC043 18/17 A2979 RMK AO2 RAE15 SLP084
                 P0000 60002 T01780167 10228 20178 58002 =
2018-06-21 00:54 METAR KMGJ 210454Z AUTO 20008KT 10SM -RA FEW039 BKN048 OVC070 18/17 A2980 RMK
                 AO2 RAB0355 SLP088 P0002 T01830167 402720133 =
2018-06-20 23:54 METAR KMGJ 210354Z AUTO 20006KT 10SM OVC046 21/16 A2980 RMK AO2 SLP088 T02110156
                 =
2018-06-20 22:54 METAR KMGJ 210254Z AUTO 32003KT 10SM OVC065 22/15 A2979 RMK AO2 RAB16E39 SLP086
                 P0000 60000 T02170150 50001 =
2018-06-20 21:54 METAR KMGJ 210154Z AUTO VRB03KT 10SM OVC065 22/17 A2979 RMK AO2 SLP087 T02220172
                 =
2018-06-20 20:54 METAR KMGJ 210054Z AUTO 23004KT 10SM OVC075 21/19 A2979 RMK AO2 SLP087 T02110189
                 =
2018-06-20 19:54 METAR KMGJ 202354Z AUTO 35003KT 10SM OVC090 23/18 A2979 RMK AO2 RAE48 SLP085
                 P0000 60000 T02280183 10272 20217 55006 =
2018-06-20 18:54 METAR KMGJ 202254Z AUTO 00000KT 10SM -RA FEW080 BKN100 BKN120 24/16 A2979 RMK
                 AO2 RAB54 SLP085 P0000 T02440156 =
2018-06-20 17:54 METAR KMGJ 202154Z AUTO 00000KT 10SM BKN100 26/14 A2978 RMK AO2 SLP083 T02560139
                 =
2018-06-20 16:54 METAR KMGJ 202054Z AUTO 30003KT 10SM OVC110 26/14 A2981 RMK AO2 SLP092 T02560139
                 56014 =
2018-06-20 15:54 METAR KMGJ 201954Z AUTO 30006KT 10SM CLR 26/13 A2982 RMK AO2 SLP098 T02610128 =
2018-06-20 14:54 METAR KMGJ 201854Z AUTO 00000KT 10SM CLR 26/13 A2983 RMK AO2 SLP099 T02560128 =
2018-06-20 13:54 METAR KMGJ 201754Z AUTO 23005KT 10SM CLR 26/13 A2985 RMK AO2 SLP105 T02610133
                 10261 20189 58018 =
2018-06-20 12:54 METAR KMGJ 201654Z AUTO 00000KT 10SM CLR 24/13 A2986 RMK AO2 SLP111 T02390133 =

Support USWX by starting your Amazon purchase here.